Time;durP1;ratioP1;P1;durP2;ratioP2;P2;SDS_P1;SDS_P2;PMS_P1;PMS_P2;Temp;Humidity;BMP_temperature;BMP_pressure;BME280_temperature;BME280_humidity;BME280_pressure;Samples;Min_cycle;Max_cycle;Signal;HPM_P1;HPM_P2
2022/03/21 00:00:59;;;;;;;10.55;7.68;;;11.50;60.10;;;;;;5007918;28;20048;-46
2022/03/21 00:03:31;;;;;;;11.80;6.63;;;11.60;60.80;;;;;;4988624;28;20579;-48
2022/03/21 00:06:02;;;;;;;9.85;7.38;;;11.50;60.00;;;;;;5008682;28;20489;-47
2022/03/21 00:08:29;;;;;;;9.32;7.57;;;11.50;60.20;;;;;;4999815;28;20382;-46
2022/03/21 00:11:01;;;;;;;10.75;7.43;;;11.50;60.20;;;;;;4998426;28;20041;-47
2022/03/21 00:13:30;;;;;;;11.77;7.63;;;11.50;60.80;;;;;;5005117;28;20465;-47
2022/03/21 00:15:57;;;;;;;13.02;7.68;;;11.50;60.60;;;;;;4995216;28;20065;-46
2022/03/21 00:18:25;;;;;;;11.45;8.02;;;11.50;60.70;;;;;;5009673;28;20045;-47
2022/03/21 00:20:54;;;;;;;11.70;7.45;;;11.50;60.70;;;;;;5001675;28;20061;-46
2022/03/21 00:23:25;;;;;;;10.40;7.63;;;11.50;60.80;;;;;;5005872;28;20038;-46
2022/03/21 00:25:56;;;;;;;13.18;7.75;;;11.50;60.80;;;;;;5003664;28;20037;-47
2022/03/21 00:28:23;;;;;;;10.68;8.45;;;11.50;61.10;;;;;;5000479;28;20042;-47
2022/03/21 00:30:57;;;;;;;11.63;8.05;;;11.50;60.90;;;;;;4990288;28;20073;-46
2022/03/21 00:33:24;;;;;;;12.38;8.02;;;11.50;60.80;;;;;;5004825;28;20041;-46
2022/03/21 00:35:51;;;;;;;13.73;8.27;;;11.40;60.80;;;;;;4985176;28;20034;-46
2022/03/21 00:38:20;;;;;;;12.45;8.10;;;11.40;61.00;;;;;;5004244;28;20049;-46
2022/03/21 00:40:47;;;;;;;12.05;7.85;;;11.40;61.20;;;;;;5005050;28;20045;-46
2022/03/21 00:43:18;;;;;;;9.70;7.63;;;11.40;61.20;;;;;;5008283;28;20061;-46
2022/03/21 00:45:50;;;;;;;12.32;8.43;;;11.40;61.20;;;;;;5004789;28;20489;-47
2022/03/21 00:48:19;;;;;;;10.93;8.05;;;11.40;61.10;;;;;;5008164;28;20084;-46
2022/03/21 00:50:48;;;;;;;11.52;8.15;;;11.40;61.20;;;;;;4989285;28;20043;-46
2022/03/21 00:53:16;;;;;;;12.77;7.60;;;11.40;61.30;;;;;;4991356;28;20034;-46
2022/03/21 00:55:44;;;;;;;9.93;8.07;;;11.40;61.30;;;;;;5004815;28;20042;-48
2022/03/21 00:58:10;;;;;;;10.77;8.45;;;11.40;61.20;;;;;;5001223;28;20046;-46
2022/03/21 01:00:38;;;;;;;11.48;8.32;;;11.40;61.20;;;;;;5008810;28;20053;-47
2022/03/21 01:03:07;;;;;;;11.70;8.10;;;11.40;61.30;;;;;;5004986;28;20050;-46
2022/03/21 01:05:34;;;;;;;12.27;8.65;;;11.40;61.70;;;;;;5000866;28;20050;-46
2022/03/21 01:08:04;;;;;;;11.90;8.18;;;11.30;61.40;;;;;;4997815;28;20069;-47
2022/03/21 01:10:35;;;;;;;11.77;7.53;;;11.30;61.40;;;;;;4996072;28;20042;-46
2022/03/21 01:13:02;;;;;;;11.38;8.93;;;11.30;61.50;;;;;;5001609;28;20100;-47
2022/03/21 01:15:32;;;;;;;13.20;8.77;;;11.30;61.60;;;;;;5004863;28;20077;-46
2022/03/21 01:17:59;;;;;;;9.98;7.63;;;11.30;61.90;;;;;;4977880;28;20046;-47
2022/03/21 01:20:28;;;;;;;10.20;7.57;;;11.20;61.70;;;;;;4991108;28;20042;-46
2022/03/21 01:22:57;;;;;;;10.98;8.80;;;11.20;61.80;;;;;;5006295;28;20042;-47
2022/03/21 01:25:27;;;;;;;11.15;7.80;;;11.20;61.90;;;;;;5000139;28;20093;-46
2022/03/21 01:27:54;;;;;;;11.30;6.80;;;11.20;61.90;;;;;;5009479;28;20729;-46
2022/03/21 01:30:23;;;;;;;11.27;8.02;;;11.20;61.90;;;;;;5007142;28;20552;-46
2022/03/21 01:32:53;;;;;;;11.05;7.85;;;11.20;62.10;;;;;;5007387;28;20044;-47
2022/03/21 01:35:21;;;;;;;11.20;7.60;;;11.20;62.00;;;;;;5003985;28;20042;-46
2022/03/21 01:37:50;;;;;;;10.85;7.55;;;11.20;62.00;;;;;;5010942;28;20042;-47
2022/03/21 01:40:17;;;;;;;11.75;7.50;;;11.20;62.00;;;;;;5009407;28;20127;-45
2022/03/21 01:42:47;;;;;;;9.20;7.00;;;11.20;62.10;;;;;;5005153;28;20405;-47
2022/03/21 01:45:16;;;;;;;12.15;7.50;;;11.10;62.20;;;;;;5004193;28;20066;-45
2022/03/21 01:47:43;;;;;;;9.18;7.05;;;11.10;62.20;;;;;;4995386;28;20038;-46
2022/03/21 01:50:11;;;;;;;11.02;7.88;;;11.10;62.20;;;;;;5001608;28;20560;-46
2022/03/21 01:52:44;;;;;;;10.35;7.00;;;11.10;62.40;;;;;;5008869;28;20034;-46
2022/03/21 01:57:59;;;;;;;9.52;7.25;;;11.10;62.50;;;;;;5009626;28;20049;-47
2022/03/21 02:00:26;;;;;;;9.48;7.25;;;11.10;62.50;;;;;;5011705;28;20472;-46
2022/03/21 02:02:53;;;;;;;9.02;7.05;;;11.00;62.40;;;;;;5004588;28;20718;-47
2022/03/21 02:05:22;;;;;;;10.00;7.95;;;11.00;62.40;;;;;;5010336;28;20076;-47
2022/03/21 02:07:53;;;;;;;10.50;7.43;;;11.00;62.80;;;;;;5005426;28;20383;-47
2022/03/21 02:10:26;;;;;;;9.10;6.63;;;11.00;62.60;;;;;;4997481;28;20039;-46
2022/03/21 02:12:53;;;;;;;14.85;8.13;;;11.00;62.70;;;;;;5008949;28;20097;-47
2022/03/21 02:15:20;;;;;;;10.70;7.10;;;11.00;62.60;;;;;;4980555;28;20049;-48
2022/03/21 02:18:00;;;;;;;9.70;7.57;;;11.00;62.80;;;;;;4991024;28;20098;-46
2022/03/21 02:20:32;;;;;;;9.55;7.10;;;11.00;63.20;;;;;;4997988;28;20042;-47
2022/03/21 02:23:08;;;;;;;9.23;6.40;;;11.00;62.90;;;;;;5005557;28;20047;-46
2022/03/21 02:25:36;;;;;;;10.15;6.50;;;10.90;63.00;;;;;;5009604;28;20099;-45
2022/03/21 02:28:07;;;;;;;10.52;7.18;;;11.00;62.90;;;;;;5006879;28;20125;-48
2022/03/21 02:30:38;;;;;;;8.88;7.38;;;10.90;63.40;;;;;;5010108;28;20059;-47
2022/03/21 02:33:08;;;;;;;13.48;8.25;;;11.00;63.40;;;;;;4996144;28;20503;-49
2022/03/21 02:35:36;;;;;;;11.75;8.57;;;11.00;63.30;;;;;;4991709;28;20120;-46
2022/03/21 02:38:07;;;;;;;12.23;8.45;;;11.00;63.30;;;;;;5003367;28;20114;-45
2022/03/21 02:40:34;;;;;;;10.85;8.23;;;11.00;63.60;;;;;;5008368;28;20042;-45
2022/03/21 02:43:06;;;;;;;11.25;8.30;;;11.00;63.40;;;;;;4991374;28;20049;-45
2022/03/21 02:45:35;;;;;;;16.15;7.95;;;11.00;63.70;;;;;;4992290;28;20133;-46
2022/03/21 02:48:05;;;;;;;13.02;8.05;;;11.00;63.40;;;;;;5005807;28;20127;-46
2022/03/21 02:50:49;;;;;;;11.43;7.35;;;11.00;64.10;;;;;;5003753;28;20113;-45
2022/03/21 02:53:19;;;;;;;9.48;7.38;;;11.00;63.50;;;;;;5010936;28;20042;-46
2022/03/21 02:55:54;;;;;;;10.73;7.15;;;11.00;63.20;;;;;;5006192;28;20468;-45
2022/03/21 02:58:24;;;;;;;9.20;7.25;;;10.90;63.40;;;;;;5009520;28;20110;-46
2022/03/21 03:00:53;;;;;;;10.00;7.65;;;10.90;62.90;;;;;;5005111;28;20057;-45
2022/03/21 03:03:20;;;;;;;9.98;7.13;;;10.90;62.60;;;;;;5008677;28;20060;-46
2022/03/21 03:05:48;;;;;;;8.68;7.55;;;10.90;62.40;;;;;;5002327;28;20041;-46
2022/03/21 03:08:15;;;;;;;7.80;6.65;;;10.80;62.50;;;;;;4999974;28;20477;-45
2022/03/21 03:10:42;;;;;;;10.02;6.63;;;10.70;62.60;;;;;;5003291;28;20069;-47
2022/03/21 03:13:11;;;;;;;9.57;7.07;;;10.70;62.30;;;;;;5010154;28;20536;-46
2022/03/21 03:15:40;;;;;;;9.13;6.85;;;10.60;62.20;;;;;;5004046;28;20080;-46
2022/03/21 03:18:06;;;;;;;9.75;7.30;;;10.60;61.90;;;;;;5003682;28;20038;-46
2022/03/21 03:20:35;;;;;;;9.98;6.28;;;10.50;61.50;;;;;;5010453;28;20038;-46
2022/03/21 03:23:06;;;;;;;7.70;6.22;;;10.40;61.30;;;;;;5005875;28;20045;-46
2022/03/21 03:25:35;;;;;;;9.23;5.78;;;10.30;61.30;;;;;;5004175;28;20050;-46
2022/03/21 03:28:04;;;;;;;7.30;5.85;;;10.20;61.10;;;;;;5002597;28;20502;-45
2022/03/21 03:30:32;;;;;;;8.90;6.60;;;10.10;60.90;;;;;;5011594;28;20041;-45
2022/03/21 03:32:59;;;;;;;8.93;6.38;;;10.00;60.80;;;;;;5008179;28;20045;-46
2022/03/21 03:35:26;;;;;;;8.02;5.82;;;9.90;60.80;;;;;;5007854;28;20494;-47
2022/03/21 03:37:55;;;;;;;7.55;5.95;;;9.80;60.70;;;;;;5001964;28;20041;-46
2022/03/21 03:40:24;;;;;;;6.47;5.63;;;9.70;60.60;;;;;;5010467;28;20049;-46
2022/03/21 03:42:56;;;;;;;8.68;5.78;;;9.70;60.60;;;;;;5003352;28;20437;-45
2022/03/21 03:45:23;;;;;;;5.93;5.07;;;9.50;60.60;;;;;;5009211;28;20042;-46
2022/03/21 03:47:50;;;;;;;6.90;5.03;;;9.40;60.80;;;;;;5001866;28;20108;-46
2022/03/21 03:50:16;;;;;;;8.38;6.15;;;9.30;60.80;;;;;;5011015;28;20449;-47
2022/03/21 03:52:46;;;;;;;11.63;7.40;;;9.20;61.00;;;;;;5003604;28;20038;-45
2022/03/21 03:55:13;;;;;;;9.10;7.07;;;9.20;61.20;;;;;;5002754;28;20591;-45
2022/03/21 03:57:41;;;;;;;9.77;6.88;;;9.10;61.90;;;;;;5009708;28;20054;-46
2022/03/21 04:00:11;;;;;;;9.65;7.75;;;9.00;61.30;;;;;;5006200;28;20070;-49
2022/03/21 04:05:29;;;;;;;6.63;5.78;;;8.90;61.60;;;;;;5001558;28;20647;-45
2022/03/21 04:07:56;;;;;;;6.75;6.00;;;8.80;61.80;;;;;;4981096;28;20453;-46
2022/03/21 04:10:23;;;;;;;7.55;5.72;;;8.80;62.20;;;;;;4997484;28;20049;-45
2022/03/21 04:12:51;;;;;;;7.95;5.60;;;8.70;62.50;;;;;;5006304;28;20041;-47
2022/03/21 04:15:18;;;;;;;6.07;4.95;;;8.70;62.90;;;;;;5005125;28;20568;-47
2022/03/21 04:17:50;;;;;;;6.40;4.90;;;8.80;63.20;;;;;;5009091;28;20037;-46
2022/03/21 04:20:18;;;;;;;8.00;5.47;;;8.70;63.50;;;;;;5003994;28;20045;-46
2022/03/21 04:22:49;;;;;;;7.88;5.95;;;8.70;63.30;;;;;;4998307;28;20267;-46
2022/03/21 04:25:16;;;;;;;7.32;6.10;;;8.80;63.40;;;;;;5004956;28;20775;-46
2022/03/21 04:27:43;;;;;;;6.15;4.75;;;8.80;63.20;;;;;;5006725;28;20502;-46
2022/03/21 04:30:12;;;;;;;6.57;5.15;;;8.80;63.00;;;;;;5040510;22;20059;-45
2022/03/21 04:32:41;;;;;;;6.18;5.13;;;8.80;62.60;;;;;;5032913;28;20037;-44
2022/03/21 04:35:08;;;;;;;5.88;4.53;;;8.70;62.50;;;;;;5048047;28;20558;-46
2022/03/21 04:37:35;;;;;;;6.28;4.82;;;8.70;62.50;;;;;;5043840;28;20051;-45
2022/03/21 04:40:07;;;;;;;5.85;4.70;;;8.70;62.50;;;;;;5028481;28;20052;-44
2022/03/21 04:42:34;;;;;;;4.25;3.53;;;8.70;62.40;;;;;;5036293;28;20073;-47
2022/03/21 04:45:05;;;;;;;6.65;4.93;;;8.60;62.30;;;;;;5037773;28;20045;-47
2022/03/21 04:47:34;;;;;;;7.00;4.85;;;8.60;62.60;;;;;;5048689;28;20519;-44
2022/03/21 04:50:01;;;;;;;5.55;4.80;;;8.60;62.70;;;;;;5048034;28;20679;-48
2022/03/21 04:52:29;;;;;;;7.80;5.45;;;8.50;63.00;;;;;;5032084;28;20046;-44
2022/03/21 04:54:55;;;;;;;7.30;5.28;;;8.60;63.30;;;;;;5048289;28;20041;-44
2022/03/21 04:57:25;;;;;;;6.78;5.80;;;8.50;63.50;;;;;;5037800;28;20033;-47
2022/03/21 04:59:53;;;;;;;7.18;5.75;;;8.60;64.10;;;;;;5037904;28;20099;-46
2022/03/21 05:02:20;;;;;;;10.20;6.55;;;8.60;64.10;;;;;;5048210;28;20106;-46
2022/03/21 05:04:48;;;;;;;8.52;6.22;;;8.60;64.20;;;;;;5052706;28;20495;-47
2022/03/21 05:07:18;;;;;;;6.78;5.88;;;8.60;64.30;;;;;;5038189;28;20056;-44
2022/03/21 05:09:45;;;;;;;9.50;5.95;;;8.60;64.30;;;;;;5044856;28;20095;-46
2022/03/21 05:12:14;;;;;;;7.88;6.18;;;8.70;64.90;;;;;;5035397;28;20131;-47
2022/03/21 05:14:47;;;;;;;7.18;5.90;;;8.70;64.10;;;;;;5036568;28;20408;-45
2022/03/21 05:17:17;;;;;;;7.93;5.97;;;8.70;64.00;;;;;;5023989;28;20049;-46
2022/03/21 05:19:44;;;;;;;6.50;5.70;;;8.70;63.90;;;;;;5045303;28;20045;-46
2022/03/21 05:22:13;;;;;;;6.65;5.50;;;8.70;63.70;;;;;;5036590;28;20089;-44
2022/03/21 05:36:08;;;;;;;6.63;5.07;;;8.50;62.30;;;;;;5030382;28;20049;-47
2022/03/21 05:38:35;;;;;;;6.25;5.15;;;8.40;62.00;;;;;;5036824;28;20131;-44
2022/03/21 05:41:03;;;;;;;5.47;4.80;;;8.40;62.00;;;;;;5043982;28;20056;-49
2022/03/21 05:43:32;;;;;;;7.25;5.75;;;8.30;62.00;;;;;;5025161;28;20045;-45
2022/03/21 05:46:01;;;;;;;7.50;5.20;;;8.20;62.10;;;;;;5026199;28;20037;-46
2022/03/21 05:51:15;;;;;;;7.72;5.32;;;8.10;62.00;;;;;;5053191;28;20033;-44
2022/03/21 05:53:44;;;;;;;8.98;5.80;;;8.10;61.90;;;;;;5042226;28;20463;-48
2022/03/21 05:56:13;;;;;;;6.25;5.63;;;8.00;62.10;;;;;;5039435;28;20049;-43
2022/03/21 05:58:41;;;;;;;7.00;5.68;;;7.90;62.10;;;;;;5051466;28;20052;-45
2022/03/21 06:01:10;;;;;;;9.70;6.25;;;7.90;62.30;;;;;;5053210;28;20103;-44
2022/03/21 06:03:38;;;;;;;8.30;6.13;;;7.80;62.50;;;;;;5038077;28;20052;-45
2022/03/21 06:06:05;;;;;;;9.60;6.15;;;7.80;62.80;;;;;;5051626;28;20049;-44
2022/03/21 06:08:33;;;;;;;12.70;7.45;;;7.80;63.10;;;;;;5026672;28;20467;-47
2022/03/21 06:11:08;;;;;;;10.30;7.45;;;7.80;64.00;;;;;;5022832;28;20053;-46
2022/03/21 06:13:40;;;;;;;11.70;7.68;;;7.80;63.60;;;;;;5030981;28;20078;-48
2022/03/21 06:16:07;;;;;;;9.00;6.70;;;7.80;64.00;;;;;;5035623;28;20167;-45
2022/03/21 06:18:35;;;;;;;10.00;7.18;;;7.80;63.80;;;;;;5028569;28;20592;-45
2022/03/21 06:21:05;;;;;;;12.93;8.32;;;7.80;64.00;;;;;;5027414;28;20050;-45
2022/03/21 06:23:33;;;;;;;11.00;7.55;;;7.80;64.10;;;;;;5025243;28;20041;-43
2022/03/21 06:26:00;;;;;;;10.45;7.88;;;7.80;64.00;;;;;;5049539;28;20044;-45
2022/03/21 06:28:28;;;;;;;12.38;8.07;;;7.80;64.00;;;;;;5021785;28;20037;-44
2022/03/21 06:30:56;;;;;;;11.10;8.40;;;7.80;64.30;;;;;;5028251;28;20045;-44
2022/03/21 06:33:26;;;;;;;12.52;8.00;;;7.80;64.30;;;;;;5031805;28;20100;-45
2022/03/21 06:35:53;;;;;;;13.20;8.68;;;7.80;64.30;;;;;;5029575;28;20099;-48
2022/03/21 06:38:21;;;;;;;12.82;8.70;;;7.90;64.40;;;;;;5025145;28;20049;-44
2022/03/21 06:40:49;;;;;;;12.30;8.90;;;7.90;64.50;;;;;;5026607;28;20064;-44
2022/03/21 06:43:17;;;;;;;12.23;8.70;;;7.90;64.50;;;;;;5024920;28;20038;-45
2022/03/21 06:45:44;;;;;;;12.57;9.52;;;7.90;64.60;;;;;;5023722;28;20041;-45
2022/03/21 06:48:10;;;;;;;14.93;9.02;;;7.90;64.50;;;;;;5023039;28;20033;-45
2022/03/21 06:50:37;;;;;;;13.38;9.30;;;8.00;64.70;;;;;;5027604;28;20041;-44
2022/03/21 06:53:04;;;;;;;12.68;9.52;;;8.00;64.70;;;;;;5021353;28;20093;-46
2022/03/21 06:55:31;;;;;;;13.48;9.40;;;8.00;64.80;;;;;;5023103;28;20046;-46
2022/03/21 06:58:01;;;;;;;13.23;9.38;;;8.00;65.00;;;;;;5021290;28;20088;-45
2022/03/21 07:00:27;;;;;;;13.48;9.05;;;8.10;65.10;;;;;;5025989;28;20102;-46
2022/03/21 07:02:54;;;;;;;12.05;9.18;;;8.10;65.10;;;;;;5026055;28;20041;-44
2022/03/21 07:05:21;;;;;;;13.20;9.45;;;8.20;65.30;;;;;;5016261;28;20049;-45
2022/03/21 07:07:52;;;;;;;13.70;9.32;;;8.20;65.40;;;;;;5026112;28;20037;-45
2022/03/21 07:10:18;;;;;;;12.48;10.23;;;8.30;65.50;;;;;;5038078;28;20489;-45
2022/03/21 07:12:45;;;;;;;14.75;9.77;;;8.30;65.50;;;;;;5049884;28;20037;-46
2022/03/21 07:15:12;;;;;;;12.75;9.82;;;8.30;65.60;;;;;;5047462;28;20057;-45
2022/03/21 07:17:42;;;;;;;13.48;9.98;;;8.40;65.70;;;;;;5031402;28;20069;-45
2022/03/21 07:20:10;;;;;;;14.80;9.85;;;8.40;66.00;;;;;;5035843;28;20053;-46
2022/03/21 07:22:38;;;;;;;14.05;10.25;;;8.50;65.90;;;;;;5049665;28;20040;-44
2022/03/21 07:25:07;;;;;;;14.57;10.57;;;8.50;65.90;;;;;;5050446;28;20434;-43
2022/03/21 07:27:34;;;;;;;15.20;11.80;;;8.60;66.10;;;;;;5039218;28;20080;-45
2022/03/21 07:30:00;;;;;;;20.80;12.30;;;8.60;66.20;;;;;;5039433;28;20075;-46
2022/03/21 07:32:27;;;;;;;15.63;12.73;;;8.70;66.40;;;;;;5050885;28;20052;-45
2022/03/21 07:34:54;;;;;;;18.83;12.25;;;8.70;66.40;;;;;;5050411;28;20662;-45
2022/03/21 07:37:21;;;;;;;18.85;13.48;;;8.80;66.60;;;;;;5031532;28;20045;-45
2022/03/21 07:39:47;;;;;;;22.02;14.35;;;8.80;66.70;;;;;;5042019;28;20455;-45
2022/03/21 07:42:16;;;;;;;21.95;13.70;;;8.90;67.00;;;;;;5042097;28;20072;-45
2022/03/21 07:47:29;;;;;;;20.10;12.60;;;9.00;67.10;;;;;;5023834;28;20045;-45
2022/03/21 07:49:56;;;;;;;18.95;13.73;;;9.10;67.10;;;;;;5028621;28;20086;-46
2022/03/21 07:52:23;;;;;;;18.27;12.75;;;9.20;67.30;;;;;;5022455;28;20058;-45
2022/03/21 07:54:53;;;;;;;19.13;13.27;;;9.30;67.30;;;;;;5023926;28;20069;-46
2022/03/21 07:57:26;;;;;;;20.05;13.93;;;9.40;67.40;;;;;;5022600;28;20248;-46
2022/03/21 07:59:53;;;;;;;17.85;12.73;;;9.50;67.90;;;;;;5020486;28;20037;-46
2022/03/21 08:02:21;;;;;;;22.33;14.40;;;9.60;67.50;;;;;;5023963;28;20120;-45
2022/03/21 08:04:50;;;;;;;19.00;13.55;;;9.60;67.50;;;;;;5031727;28;20040;-46
2022/03/21 08:07:26;;;;;;;19.83;13.38;;;9.70;67.60;;;;;;5021227;28;20038;-45
2022/03/21 08:09:54;;;;;;;21.88;13.70;;;9.80;67.60;;;;;;5020307;28;20041;-46
2022/03/21 08:12:21;;;;;;;20.48;14.15;;;9.90;67.70;;;;;;5020340;28;20103;-45
2022/03/21 08:14:47;;;;;;;20.60;14.48;;;10.00;67.80;;;;;;5033791;28;20118;-47
2022/03/21 08:17:14;;;;;;;22.70;16.05;;;10.10;67.90;;;;;;5033948;28;20044;-45
2022/03/21 08:19:41;;;;;;;24.55;16.17;;;10.20;67.90;;;;;;5031192;28;20687;-47
2022/03/21 08:22:07;;;;;;;22.67;15.73;;;10.20;67.60;;;;;;5018903;28;20045;-46
2022/03/21 08:24:35;;;;;;;23.63;15.50;;;10.30;67.60;;;;;;5026194;28;20042;-47
2022/03/21 08:27:05;;;;;;;25.55;16.73;;;10.40;68.10;;;;;;5022933;28;20099;-45
2022/03/21 08:29:32;;;;;;;22.95;15.80;;;10.50;67.50;;;;;;5019140;28;20042;-45
2022/03/21 08:32:00;;;;;;;26.80;16.67;;;10.60;67.40;;;;;;5024862;28;20536;-45
2022/03/21 08:34:27;;;;;;;25.05;17.58;;;10.70;67.30;;;;;;5022045;28;20034;-45
2022/03/21 08:36:54;;;;;;;25.30;16.35;;;10.70;67.00;;;;;;5042442;28;20124;-46
2022/03/21 08:39:21;;;;;;;23.20;16.17;;;10.80;66.90;;;;;;5038616;28;20040;-45
2022/03/21 08:41:48;;;;;;;27.50;17.67;;;10.90;66.60;;;;;;5015148;28;20447;-45
2022/03/21 08:44:15;;;;;;;27.33;17.98;;;11.00;66.80;;;;;;5025955;28;20124;-46
2022/03/21 08:46:41;;;;;;;22.40;17.20;;;11.00;66.70;;;;;;5028984;28;20132;-44
2022/03/21 08:49:23;;;;;;;26.52;18.38;;;11.10;66.60;;;;;;5014600;28;20050;-46
2022/03/21 08:52:01;;;;;;;22.88;17.13;;;11.20;66.40;;;;;;5027237;28;20041;-45
2022/03/21 08:54:28;;;;;;;27.65;17.17;;;11.30;66.20;;;;;;5046615;28;20539;-46
2022/03/21 08:56:55;;;;;;;25.33;17.77;;;11.40;66.00;;;;;;5049137;28;20111;-47
2022/03/21 08:59:22;;;;;;;23.13;17.13;;;11.50;65.80;;;;;;5017368;28;20827;-44
2022/03/21 09:01:49;;;;;;;24.77;16.88;;;11.60;65.50;;;;;;5028062;28;20037;-46
2022/03/21 09:04:16;;;;;;;22.55;16.40;;;11.60;65.50;;;;;;5028654;28;20103;-46
2022/03/21 09:06:43;;;;;;;26.15;17.73;;;11.70;65.50;;;;;;5040525;28;20125;-44
2022/03/21 09:09:10;;;;;;;25.48;16.73;;;11.80;65.30;;;;;;5026435;28;20069;-47
2022/03/21 09:11:37;;;;;;;26.27;16.52;;;11.90;65.20;;;;;;5044341;28;20103;-45
2022/03/21 09:14:08;;;;;;;29.17;18.58;;;12.00;65.00;;;;;;5049192;28;20044;-47
2022/03/21 09:16:37;;;;;;;24.95;16.55;;;12.00;65.10;;;;;;5033663;28;20037;-45
2022/03/21 09:19:06;;;;;;;25.65;16.55;;;12.10;64.80;;;;;;5039890;28;20110;-46
2022/03/21 09:21:33;;;;;;;22.30;16.63;;;12.20;64.40;;;;;;5035730;28;20051;-45
2022/03/21 09:24:00;;;;;;;26.02;17.38;;;12.30;64.20;;;;;;5048828;28;20057;-45
2022/03/21 09:26:27;;;;;;;22.58;17.20;;;12.40;64.30;;;;;;5047676;28;20504;-45
2022/03/21 09:29:02;;;;;;;28.10;18.13;;;12.40;64.30;;;;;;5042023;28;20508;-45
2022/03/21 09:31:32;;;;;;;24.65;17.58;;;12.50;64.20;;;;;;5034355;28;20049;-46
2022/03/21 09:34:13;;;;;;;26.67;16.65;;;12.60;64.00;;;;;;5049291;28;20033;-45
2022/03/21 09:36:40;;;;;;;26.63;17.85;;;12.70;64.20;;;;;;5049388;28;20041;-46
2022/03/21 09:39:08;;;;;;;25.45;17.75;;;12.80;63.90;;;;;;5029318;28;20052;-47
2022/03/21 09:41:36;;;;;;;25.08;17.27;;;12.80;64.00;;;;;;5043492;28;20047;-47
2022/03/21 09:44:12;;;;;;;25.45;16.88;;;12.90;63.80;;;;;;5048298;28;20076;-46
2022/03/21 09:46:41;;;;;;;27.60;17.63;;;13.00;63.80;;;;;;5041321;28;20049;-46
2022/03/21 09:49:16;;;;;;;24.35;16.80;;;13.10;63.80;;;;;;5034546;28;20053;-47
2022/03/21 09:51:45;;;;;;;23.98;17.77;;;13.20;63.80;;;;;;5052251;28;20535;-46
2022/03/21 09:54:15;;;;;;;27.27;17.30;;;13.30;63.80;;;;;;5023746;28;20404;-46
2022/03/21 09:56:42;;;;;;;26.77;18.40;;;13.40;63.70;;;;;;5021963;28;20532;-45
2022/03/21 09:59:09;;;;;;;26.42;17.40;;;13.40;63.80;;;;;;5034235;28;20056;-46
2022/03/21 10:01:37;;;;;;;24.88;18.23;;;13.50;63.80;;;;;;5051007;28;20568;-45
2022/03/21 10:04:06;;;;;;;25.95;18.20;;;13.60;63.30;;;;;;5051583;28;20044;-47
2022/03/21 10:06:35;;;;;;;22.45;15.93;;;13.70;63.20;;;;;;5039414;28;20038;-44
2022/03/21 10:09:17;;;;;;;24.40;15.38;;;13.80;62.80;;;;;;5043494;28;20045;-44
2022/03/21 10:11:54;;;;;;;20.00;14.82;;;13.90;62.50;;;;;;5052224;28;20045;-46
2022/03/21 10:14:32;;;;;;;26.23;17.15;;;14.00;62.10;;;;;;5046778;28;20072;-47
2022/03/21 10:17:03;;;;;;;25.02;16.15;;;14.10;62.10;;;;;;5023214;28;20144;-45
2022/03/21 10:19:46;;;;;;;23.25;16.30;;;14.10;61.70;;;;;;5041668;28;20049;-44
2022/03/21 10:22:21;;;;;;;;;;;14.30;62.20;;;;;;5052198;28;20047;-46
2022/03/21 10:24:51;;;;;;;22.90;15.73;;;14.40;61.70;;;;;;5051700;28;19920;-45
2022/03/21 10:27:36;;;;;;;21.20;16.70;;;14.50;61.00;;;;;;5039725;28;20065;-46
2022/03/21 10:30:08;;;;;;;19.70;16.33;;;14.60;61.40;;;;;;5032297;28;20048;-45
2022/03/21 10:33:06;;;;;;;22.80;16.58;;;14.70;61.40;;;;;;5030176;28;20580;-46
2022/03/21 10:35:32;;;;;;;22.52;15.40;;;14.80;61.90;;;;;;5016207;28;20437;-47
2022/03/21 10:38:02;;;;;;;23.27;17.27;;;14.80;60.90;;;;;;5039796;28;20076;-46
2022/03/21 10:40:30;;;;;;;22.83;16.27;;;14.90;61.40;;;;;;5059062;22;20069;-51
2022/03/21 10:43:06;;;;;;;22.52;17.45;;;15.00;60.90;;;;;;5051296;28;20094;-51
2022/03/21 10:45:39;;;;;;;22.77;16.05;;;15.10;60.80;;;;;;5051562;28;20136;-52
2022/03/21 10:48:12;;;;;;;19.80;15.13;;;15.10;61.00;;;;;;5051003;28;20536;-51
2022/03/21 10:50:45;;;;;;;23.58;16.80;;;15.20;60.40;;;;;;5037333;28;20045;-53
2022/03/21 10:53:16;;;;;;;22.13;16.58;;;15.30;60.00;;;;;;5039805;28;20038;-51
2022/03/21 10:55:48;;;;;;;20.30;14.80;;;15.40;59.60;;;;;;5041553;28;20052;-52
2022/03/21 10:58:40;;;;;;;19.67;14.57;;;15.40;59.20;;;;;;5050666;28;20072;-52
2022/03/21 11:01:25;;;;;;;21.63;16.38;;;15.50;59.10;;;;;;5042442;28;20103;-53
2022/03/21 11:03:56;;;;;;;24.08;16.00;;;15.60;58.90;;;;;;5022232;28;20584;-48
2022/03/21 11:06:24;;;;;;;22.63;15.98;;;15.70;59.00;;;;;;5031103;28;20507;-49
2022/03/21 11:08:52;;;;;;;21.75;15.48;;;15.70;58.90;;;;;;5024124;28;20100;-52
2022/03/21 11:11:19;;;;;;;20.88;15.10;;;15.80;58.80;;;;;;5026229;28;20604;-49
2022/03/21 11:13:48;;;;;;;20.30;14.85;;;15.90;58.50;;;;;;5029510;28;20820;-52
2022/03/21 11:16:21;;;;;;;21.98;16.20;;;16.00;58.00;;;;;;5037308;28;20041;-52
2022/03/21 11:18:51;;;;;;;23.20;16.10;;;16.00;58.20;;;;;;5010223;28;20081;-53
2022/03/21 11:21:20;;;;;;;20.20;15.40;;;16.10;58.10;;;;;;5033723;28;20464;-53
2022/03/21 11:23:48;;;;;;;20.73;15.55;;;16.20;57.80;;;;;;5049993;28;20520;-49
2022/03/21 11:26:18;;;;;;;21.15;15.77;;;16.20;57.80;;;;;;5050306;28;20049;-51
2022/03/21 11:28:54;;;;;;;20.83;14.82;;;16.30;57.70;;;;;;5035535;28;20106;-51
2022/03/21 11:31:56;;;;;;;20.50;15.35;;;16.40;57.50;;;;;;5023953;28;20096;-52
2022/03/21 11:34:37;;;;;;;18.13;14.30;;;16.40;57.40;;;;;;5039592;28;20048;-53
2022/03/21 11:37:04;;;;;;;19.98;14.63;;;16.50;56.80;;;;;;5049594;28;20048;-51
2022/03/21 11:39:33;;;;;;;18.17;14.07;;;16.60;57.00;;;;;;5022126;28;20049;-51
2022/03/21 11:42:02;;;;;;;17.98;13.73;;;16.60;56.70;;;;;;5024769;28;20108;-53
2022/03/21 11:44:29;;;;;;;19.90;13.63;;;16.70;56.40;;;;;;5025724;28;20045;-48
2022/03/21 11:47:18;;;;;;;20.45;13.85;;;16.80;56.50;;;;;;5021508;28;20107;-53
2022/03/21 11:49:45;;;;;;;19.35;13.20;;;16.80;56.20;;;;;;5015617;28;20037;-48
2022/03/21 11:52:13;;;;;;;18.92;13.20;;;16.90;55.70;;;;;;5041457;28;20106;-52
2022/03/21 11:54:41;;;;;;;22.50;14.80;;;17.00;55.60;;;;;;5050104;28;20094;-49
2022/03/21 11:57:11;;;;;;;20.27;13.57;;;17.10;56.20;;;;;;5048927;28;20045;-49
2022/03/21 11:59:40;;;;;;;18.20;13.35;;;17.00;55.40;;;;;;5036042;28;20048;-52
2022/03/21 12:02:10;;;;;;;19.58;12.90;;;17.20;55.70;;;;;;5042494;28;20550;-52
2022/03/21 12:04:39;;;;;;;17.23;13.25;;;17.20;55.20;;;;;;5050096;28;20041;-53
2022/03/21 12:07:12;;;;;;;15.98;12.32;;;17.30;55.00;;;;;;5034436;28;20554;-50
2022/03/21 12:09:53;;;;;;;17.70;13.27;;;17.30;54.60;;;;;;5035699;28;20526;-53
2022/03/21 12:12:22;;;;;;;16.85;13.07;;;17.40;54.90;;;;;;5045143;28;20099;-54
2022/03/21 12:14:55;;;;;;;16.38;13.27;;;17.50;55.10;;;;;;5010632;28;20041;-49
2022/03/21 12:17:21;;;;;;;17.60;12.30;;;17.50;55.10;;;;;;5026312;28;20049;-49
2022/03/21 12:19:48;;;;;;;18.75;13.68;;;17.60;55.00;;;;;;5035197;28;20052;-52
2022/03/21 12:22:27;;;;;;;18.70;12.75;;;17.70;54.90;;;;;;5049370;28;20676;-52
2022/03/21 12:24:58;;;;;;;15.50;12.55;;;17.80;54.10;;;;;;5048320;28;20119;-53
2022/03/21 12:27:39;;;;;;;17.63;12.52;;;17.90;54.60;;;;;;5029948;28;20053;-52
2022/03/21 12:30:23;;;;;;;16.98;12.93;;;18.00;54.20;;;;;;5020868;28;20421;-52
2022/03/21 12:32:51;;;;;;;16.27;12.52;;;18.10;54.40;;;;;;5024822;28;20118;-53
2022/03/21 12:35:51;;;;;;;15.45;11.98;;;18.20;54.40;;;;;;5049034;28;20037;-51
2022/03/21 12:38:22;;;;;;;17.95;12.73;;;18.30;53.90;;;;;;5038864;28;20045;-53
2022/03/21 12:40:50;;;;;;;18.67;13.02;;;18.40;53.80;;;;;;5027657;28;20451;-52
2022/03/21 12:43:22;;;;;;;20.65;14.13;;;18.50;53.60;;;;;;5043886;28;20132;-53
2022/03/21 12:45:50;;;;;;;;;;;18.60;53.20;;;;;;5011912;28;20041;-52
2022/03/21 12:48:17;;;;;;;17.23;11.63;;;18.80;53.30;;;;;;5033945;28;20445;-52
2022/03/21 12:50:50;;;;;;;16.73;12.32;;;18.80;52.60;;;;;;5049214;28;20044;-52
2022/03/21 12:53:19;;;;;;;14.98;12.63;;;18.90;51.60;;;;;;5049179;28;20459;-52
2022/03/21 12:56:00;;;;;;;18.33;13.07;;;18.90;52.00;;;;;;5033472;28;20033;-51
2022/03/21 12:58:27;;;;;;;16.33;11.93;;;19.00;51.90;;;;;;5039658;28;20061;-52
2022/03/21 13:00:56;;;;;;;17.75;13.18;;;19.10;52.00;;;;;;5049840;28;20053;-52
2022/03/21 13:03:24;;;;;;;17.35;12.75;;;19.20;51.90;;;;;;5036167;28;20044;-53
2022/03/21 13:11:26;;;;;;;17.08;12.88;;;19.60;51.60;;;;;;5029033;28;20045;-49
2022/03/21 13:13:56;;;;;;;15.50;12.32;;;19.80;51.60;;;;;;5029567;28;20041;-52
2022/03/21 13:16:25;;;;;;;16.50;12.50;;;19.90;51.10;;;;;;5040886;28;20037;-53
2022/03/21 13:18:54;;;;;;;14.27;11.55;;;20.00;50.90;;;;;;5032613;28;20051;-51